createdAt,value
2022-10-17T00:02:08.338Z,13.71
2022-10-17T00:07:06.215Z,13.90
2022-10-17T00:09:32.709Z,13.84
2022-10-17T00:11:59.263Z,13.64
2022-10-17T00:14:25.730Z,13.90
2022-10-17T00:16:52.226Z,13.95
2022-10-17T00:19:18.822Z,13.94
2022-10-17T00:21:45.325Z,13.88
2022-10-17T00:24:11.841Z,13.87
2022-10-17T00:26:38.277Z,13.96
2022-10-17T00:29:05.096Z,14.11
2022-10-17T00:31:31.816Z,14.01
2022-10-17T00:33:58.313Z,13.88
2022-10-17T00:36:26.674Z,13.99
2022-10-17T00:38:56.468Z,14.01
2022-10-17T00:41:27.543Z,14.14
2022-10-17T00:44:04.908Z,14.08
2022-10-17T00:46:34.539Z,14.13
2022-10-17T00:49:06.111Z,14.13
2022-10-17T00:51:54.144Z,14.12
2022-10-17T00:54:25.165Z,14.16
2022-10-17T00:56:52.114Z,14.19
2022-10-17T00:59:21.910Z,14.25
2022-10-17T01:01:48.700Z,14.29
2022-10-17T01:04:15.831Z,14.32
2022-10-17T01:06:42.337Z,14.31
2022-10-17T01:09:08.904Z,14.37
2022-10-17T01:11:49.026Z,14.43
2022-10-17T01:14:30.775Z,14.47
2022-10-17T01:17:21.954Z,14.55
2022-10-17T01:20:29.590Z,14.63
2022-10-17T01:22:58.903Z,14.71
2022-10-17T01:25:31.276Z,14.79
2022-10-17T01:28:00.681Z,14.70
2022-10-17T01:30:43.910Z,14.87
2022-10-17T01:33:14.504Z,14.87
2022-10-17T01:36:04.817Z,14.97
2022-10-17T01:38:44.198Z,14.88
2022-10-17T01:41:27.728Z,14.84
2022-10-17T01:44:17.900Z,14.86
2022-10-17T01:46:50.475Z,15.02
2022-10-17T01:49:22.227Z,15.05
2022-10-17T01:51:54.723Z,14.87
2022-10-17T01:54:44.321Z,14.82
2022-10-17T01:57:18.179Z,15.00
2022-10-17T01:59:47.824Z,14.99
2022-10-17T02:02:16.560Z,15.01
2022-10-17T02:04:43.585Z,14.95
2022-10-17T02:07:11.855Z,14.91
2022-10-17T02:09:39.035Z,14.90
2022-10-17T02:12:43.222Z,15.00
2022-10-17T02:15:28.662Z,15.03
2022-10-17T02:18:06.972Z,15.09
2022-10-17T02:20:44.563Z,14.84
2022-10-17T02:23:22.002Z,15.02
2022-10-17T02:26:00.768Z,15.06
2022-10-17T02:28:36.250Z,14.95
2022-10-17T02:31:06.812Z,15.04
2022-10-17T02:33:59.464Z,14.97
2022-10-17T02:36:41.074Z,15.05
2022-10-17T02:39:09.690Z,14.99
2022-10-17T02:41:38.193Z,15.00
2022-10-17T02:44:05.537Z,15.05
2022-10-17T02:46:33.942Z,15.15
2022-10-17T02:49:12.399Z,15.09
2022-10-17T02:51:47.888Z,15.21
2022-10-17T02:54:57.235Z,15.19
2022-10-17T02:57:30.582Z,15.30
2022-10-17T03:00:00.925Z,15.24
2022-10-17T03:02:27.898Z,15.24
2022-10-17T03:04:56.049Z,15.35
2022-10-17T03:07:22.565Z,15.29
2022-10-17T03:09:49.049Z,15.33
2022-10-17T03:12:15.538Z,15.39
2022-10-17T03:14:42.059Z,15.16
2022-10-17T03:17:08.563Z,15.30
2022-10-17T03:19:35.019Z,15.23
2022-10-17T03:22:01.577Z,15.47
2022-10-17T03:24:28.057Z,15.41
2022-10-17T03:26:54.590Z,15.30
2022-10-17T03:29:21.058Z,15.16
2022-10-17T03:31:47.499Z,15.46
2022-10-17T03:34:16.754Z,15.50
2022-10-17T03:36:43.643Z,15.51
2022-10-17T03:39:10.346Z,15.53
2022-10-17T03:41:36.904Z,15.42
2022-10-17T03:44:03.534Z,15.40
2022-10-17T03:46:30.021Z,15.32
2022-10-17T03:48:56.515Z,15.23
2022-10-17T03:51:22.967Z,15.36
2022-10-17T03:53:49.449Z,15.46
2022-10-17T03:56:22.477Z,15.43
2022-10-17T03:58:49.170Z,15.28
2022-10-17T04:01:17.458Z,15.34
2022-10-17T04:03:44.298Z,15.27
2022-10-17T04:06:12.799Z,15.37
2022-10-17T04:08:39.852Z,15.34
2022-10-17T04:11:09.391Z,15.20
2022-10-17T04:13:36.580Z,15.29
2022-10-17T04:16:06.284Z,15.28
2022-10-17T04:18:33.736Z,15.28
2022-10-17T04:21:05.166Z,15.41
2022-10-17T04:23:32.054Z,15.41
2022-10-17T04:25:59.786Z,15.46
2022-10-17T04:28:27.930Z,15.40
2022-10-17T04:31:01.565Z,15.45
2022-10-17T04:33:28.663Z,15.68
2022-10-17T04:36:12.810Z,15.68
2022-10-17T04:38:39.812Z,15.71
2022-10-17T04:41:08.570Z,15.73
2022-10-17T04:43:36.702Z,15.77
2022-10-17T04:46:06.807Z,15.82
2022-10-17T04:48:33.252Z,15.88
2022-10-17T04:51:04.674Z,15.85
2022-10-17T04:53:32.812Z,15.98
2022-10-17T04:55:59.636Z,15.81
2022-10-17T04:58:26.130Z,15.80
2022-10-17T05:00:52.713Z,15.82
2022-10-17T05:03:19.267Z,15.88
2022-10-17T05:05:45.794Z,15.85
2022-10-17T05:08:12.722Z,15.87
2022-10-17T05:10:46.288Z,15.81
2022-10-17T05:13:13.150Z,15.82
2022-10-17T05:15:40.135Z,15.83
2022-10-17T05:18:07.101Z,15.81
2022-10-17T05:20:34.245Z,15.93
2022-10-17T05:23:01.069Z,15.94
2022-10-17T05:25:27.645Z,15.73
2022-10-17T05:27:54.698Z,15.68
2022-10-17T05:30:21.207Z,15.79
2022-10-17T05:32:47.769Z,15.74
2022-10-17T05:35:14.295Z,15.65
2022-10-17T05:37:41.004Z,15.64
2022-10-17T05:40:08.250Z,15.73
2022-10-17T05:42:34.865Z,15.50
2022-10-17T05:45:01.556Z,15.50
2022-10-17T05:47:28.534Z,15.48
2022-10-17T05:49:55.361Z,15.67
2022-10-17T05:52:22.076Z,15.47
2022-10-17T05:54:48.615Z,15.55
2022-10-17T05:57:15.206Z,15.67
2022-10-17T05:59:41.789Z,15.58
2022-10-17T06:02:12.096Z,15.62
2022-10-17T06:04:38.677Z,15.65
2022-10-17T06:07:05.158Z,15.72
2022-10-17T06:09:31.727Z,15.60
2022-10-17T06:11:58.240Z,15.67
2022-10-17T06:14:24.823Z,15.66
2022-10-17T06:16:51.319Z,15.68
2022-10-17T06:19:17.813Z,15.67
2022-10-17T06:21:44.316Z,15.67
2022-10-17T06:24:10.838Z,15.77
2022-10-17T06:26:37.345Z,15.83
2022-10-17T06:29:04.075Z,15.81
2022-10-17T06:31:30.671Z,15.91
2022-10-17T06:33:57.200Z,15.92
2022-10-17T06:36:23.864Z,15.94
2022-10-17T06:38:50.442Z,15.88
2022-10-17T06:41:19.010Z,15.91
2022-10-17T06:43:47.165Z,16.08
2022-10-17T06:46:15.924Z,16.08
2022-10-17T06:48:42.738Z,16.00
2022-10-17T06:51:11.344Z,16.09
2022-10-17T06:53:39.650Z,16.02
2022-10-17T06:56:08.152Z,15.97
2022-10-17T06:58:39.078Z,16.01
2022-10-17T07:01:11.683Z,15.99
2022-10-17T07:03:39.308Z,15.95
2022-10-17T07:06:06.533Z,15.97
2022-10-17T07:08:33.206Z,15.95
2022-10-17T07:11:08.362Z,15.82
2022-10-17T07:13:38.918Z,15.87
2022-10-17T07:16:06.827Z,15.76
2022-10-17T07:18:33.784Z,15.72
2022-10-17T07:21:01.163Z,15.65
2022-10-17T07:23:28.060Z,15.69
2022-10-17T07:26:00.670Z,15.69
2022-10-17T07:28:28.811Z,15.79
2022-10-17T07:30:55.569Z,15.88
2022-10-17T07:33:22.203Z,15.84
2022-10-17T07:35:48.867Z,15.91
2022-10-17T07:38:15.353Z,15.94
2022-10-17T07:40:41.859Z,15.93
2022-10-17T07:43:08.353Z,15.91
2022-10-17T07:45:34.868Z,15.84
2022-10-17T07:48:01.395Z,15.95
2022-10-17T07:50:29.192Z,15.79
2022-10-17T07:52:55.703Z,15.86
2022-10-17T07:55:22.220Z,15.83
2022-10-17T07:57:48.790Z,15.79
2022-10-17T08:00:15.686Z,15.81
2022-10-17T08:02:42.722Z,15.80
2022-10-17T08:05:09.443Z,15.76
2022-10-17T08:07:36.078Z,15.75
2022-10-17T08:10:02.787Z,15.87
2022-10-17T08:12:32.697Z,15.88
2022-10-17T08:15:02.641Z,15.87
2022-10-17T08:17:29.405Z,15.91
2022-10-17T08:19:55.978Z,15.96
2022-10-17T08:22:22.514Z,15.94
2022-10-17T08:24:49.081Z,16.06
2022-10-17T08:27:21.358Z,15.99
2022-10-17T08:29:48.840Z,16.17
2022-10-17T08:32:15.363Z,16.17
2022-10-17T08:34:41.899Z,16.10
2022-10-17T08:37:08.460Z,16.05
2022-10-17T08:39:35.052Z,16.01
2022-10-17T08:42:04.510Z,16.07
2022-10-17T08:44:55.956Z,15.87
2022-10-17T08:47:45.310Z,15.86
2022-10-17T08:50:28.946Z,15.96
2022-10-17T08:53:02.888Z,15.85
2022-10-17T08:55:44.453Z,15.88
2022-10-17T08:58:28.984Z,15.96
2022-10-17T09:01:13.073Z,16.02
2022-10-17T09:04:18.983Z,15.98
2022-10-17T09:06:54.515Z,16.11
2022-10-17T09:09:33.007Z,16.10
2022-10-17T09:12:14.569Z,16.21
2022-10-17T09:14:52.964Z,16.20
2022-10-17T09:17:35.454Z,16.10
2022-10-17T09:20:31.015Z,16.08
2022-10-17T09:23:17.395Z,15.99
2022-10-17T09:25:47.009Z,15.93
2022-10-17T09:28:25.868Z,16.13
2022-10-17T09:31:20.024Z,16.04
2022-10-17T09:33:54.358Z,16.10
2022-10-17T09:36:27.515Z,15.97
2022-10-17T09:38:57.101Z,16.03
2022-10-17T09:41:44.729Z,15.88
2022-10-17T09:44:34.168Z,15.97
2022-10-17T09:47:12.501Z,15.88
2022-10-17T09:49:41.802Z,15.89
2022-10-17T09:52:19.872Z,15.91
2022-10-17T09:55:13.825Z,15.94
2022-10-17T09:57:57.403Z,15.84
2022-10-17T10:00:30.316Z,15.91
2022-10-17T10:03:11.054Z,15.79
2022-10-17T10:05:37.673Z,15.78
2022-10-17T10:08:11.670Z,15.94
2022-10-17T10:10:42.957Z,15.92
2022-10-17T10:13:15.907Z,16.06
2022-10-17T10:15:46.599Z,15.95
2022-10-17T10:18:25.062Z,15.93
2022-10-17T10:21:37.914Z,15.99
2022-10-17T10:24:08.576Z,16.12
2022-10-17T10:26:46.685Z,15.99
2022-10-17T10:29:25.042Z,16.25
2022-10-17T10:31:53.420Z,16.10
2022-10-17T10:34:27.748Z,16.16
2022-10-17T10:37:18.187Z,16.17
2022-10-17T10:39:49.932Z,16.05
2022-10-17T10:42:22.154Z,16.05
2022-10-17T10:44:50.453Z,16.06
2022-10-17T10:47:20.066Z,16.11
2022-10-17T10:49:46.798Z,16.02
2022-10-17T10:52:36.909Z,15.96
2022-10-17T10:55:20.793Z,15.96
2022-10-17T10:57:49.732Z,16.05
2022-10-17T11:00:21.466Z,15.96
2022-10-17T11:03:21.831Z,15.99
2022-10-17T11:05:57.434Z,16.01
2022-10-17T11:08:33.645Z,16.03
2022-10-17T11:11:38.710Z,15.98
2022-10-17T11:14:31.735Z,15.99
2022-10-17T11:17:03.210Z,15.96
2022-10-17T11:19:45.231Z,16.12
2022-10-17T11:22:16.242Z,16.06
2022-10-17T11:24:45.571Z,16.06
2022-10-17T11:27:12.183Z,16.22
2022-10-17T11:29:41.821Z,16.28
2022-10-17T11:32:18.680Z,16.33
2022-10-17T11:34:53.020Z,16.44
2022-10-17T11:37:26.345Z,16.60
2022-10-17T11:39:59.142Z,16.60
2022-10-17T11:42:42.629Z,16.60
2022-10-17T11:45:17.692Z,16.66
2022-10-17T11:47:47.807Z,16.81
2022-10-17T11:53:20.685Z,16.74
2022-10-17T11:55:48.650Z,16.80
2022-10-17T12:01:15.191Z,16.53
2022-10-17T12:03:53.873Z,16.69
2022-10-17T12:06:39.559Z,16.57
2022-10-17T12:09:49.431Z,16.67
2022-10-17T12:12:28.453Z,16.72
2022-10-17T12:15:23.421Z,16.92
2022-10-17T12:18:00.981Z,16.70
2022-10-17T12:20:37.977Z,16.60
2022-10-17T12:23:20.094Z,16.82
2022-10-17T12:25:56.907Z,16.76
2022-10-17T12:28:30.915Z,16.96
2022-10-17T12:30:59.582Z,16.80
2022-10-17T12:33:34.830Z,16.90
2022-10-17T12:36:22.353Z,17.00
2022-10-17T12:38:51.545Z,16.94
2022-10-17T12:41:37.956Z,17.13
2022-10-17T12:44:13.335Z,16.92
2022-10-17T12:46:55.473Z,16.99
2022-10-17T12:49:45.462Z,17.08
2022-10-17T12:52:35.188Z,17.18
2022-10-17T12:55:16.775Z,17.02
2022-10-17T12:58:00.336Z,17.17
2022-10-17T13:00:49.701Z,17.17
2022-10-17T13:03:28.474Z,17.13
2022-10-17T13:06:01.003Z,17.07
2022-10-17T13:08:44.150Z,17.08
2022-10-17T13:11:11.566Z,17.14
2022-10-17T13:13:45.224Z,16.99
2022-10-17T13:16:29.881Z,17.04
2022-10-17T13:18:56.727Z,17.08
2022-10-17T13:21:24.331Z,17.09
2022-10-17T13:23:53.076Z,16.96
2022-10-17T13:26:22.951Z,16.97
2022-10-17T13:29:13.195Z,17.07
2022-10-17T13:31:42.179Z,17.01
2022-10-17T13:34:20.604Z,17.04
2022-10-17T13:36:50.569Z,17.02
2022-10-17T13:39:32.638Z,17.04
2022-10-17T13:42:16.784Z,17.11
2022-10-17T13:44:43.622Z,17.14
2022-10-17T13:47:22.563Z,17.06
2022-10-17T13:49:52.952Z,17.11
2022-10-17T13:52:26.949Z,17.12
2022-10-17T13:54:54.392Z,17.20
2022-10-17T13:57:25.012Z,17.18
2022-10-17T14:00:00.000Z,17.13
2022-10-17T14:02:29.276Z,17.16
2022-10-17T14:05:23.001Z,17.38
2022-10-17T14:08:13.536Z,17.39
2022-10-17T14:10:43.878Z,17.46
2022-10-17T14:13:25.895Z,17.43
2022-10-17T14:15:59.652Z,17.47
2022-10-17T14:18:37.419Z,17.26
2022-10-17T14:21:34.361Z,17.29
2022-10-17T14:24:11.475Z,17.34
2022-10-17T14:26:50.687Z,17.55
2022-10-17T14:29:32.598Z,17.52
2022-10-17T14:32:04.065Z,17.49
2022-10-17T14:34:34.721Z,17.42
2022-10-17T14:37:01.997Z,17.56
2022-10-17T14:39:29.285Z,17.53
2022-10-17T14:41:56.703Z,17.44
2022-10-17T14:44:31.781Z,17.53
2022-10-17T14:47:18.342Z,17.61
2022-10-17T14:50:03.032Z,17.62
2022-10-17T14:52:31.236Z,17.52
2022-10-17T14:54:59.588Z,17.48
2022-10-17T14:57:33.743Z,17.58
2022-10-17T15:00:00.289Z,17.55
2022-10-17T15:02:29.228Z,17.48
2022-10-17T15:04:56.067Z,17.55
2022-10-17T15:07:23.642Z,17.54
2022-10-17T15:09:53.249Z,17.59
2022-10-17T15:12:25.179Z,17.55
2022-10-17T15:14:53.007Z,17.39
2022-10-17T15:17:24.968Z,17.47
2022-10-17T15:19:51.741Z,17.51
2022-10-17T15:22:18.580Z,17.46
2022-10-17T15:24:46.261Z,17.47
2022-10-17T15:27:26.492Z,17.51
2022-10-17T15:29:53.243Z,17.45
2022-10-17T15:32:20.303Z,17.41
2022-10-17T15:34:46.962Z,17.40
2022-10-17T15:37:24.689Z,17.35
2022-10-17T15:39:54.598Z,17.35
2022-10-17T15:42:26.429Z,17.30
2022-10-17T15:44:53.405Z,17.19
2022-10-17T15:47:24.958Z,17.19
2022-10-17T15:49:51.631Z,17.17
2022-10-17T15:52:18.786Z,17.16
2022-10-17T15:54:45.341Z,17.16
2022-10-17T15:57:27.333Z,17.09
2022-10-17T15:59:55.544Z,17.10
2022-10-17T16:02:23.864Z,17.02
2022-10-17T16:04:51.439Z,16.93
2022-10-17T16:07:19.648Z,16.96
2022-10-17T16:09:46.502Z,16.94
2022-10-17T16:12:17.623Z,16.93
2022-10-17T16:14:44.424Z,16.94
2022-10-17T16:17:15.776Z,17.07
2022-10-17T16:19:42.788Z,17.02
2022-10-17T16:22:19.508Z,17.14
2022-10-17T16:24:46.037Z,17.18
2022-10-17T16:27:12.602Z,17.17
2022-10-17T16:29:39.102Z,17.02
2022-10-17T16:32:05.729Z,17.05
2022-10-17T16:34:32.383Z,16.99
2022-10-17T16:36:58.867Z,17.00
2022-10-17T16:39:25.377Z,16.78
2022-10-17T16:41:54.784Z,16.78
2022-10-17T16:44:24.432Z,16.95
2022-10-17T16:46:51.016Z,16.83
2022-10-17T16:49:18.315Z,16.76
2022-10-17T16:51:44.922Z,16.70
2022-10-17T16:54:11.521Z,16.62
2022-10-17T16:56:38.059Z,16.80
2022-10-17T16:59:04.589Z,16.86
2022-10-17T17:01:31.131Z,16.85
2022-10-17T17:03:57.706Z,16.79
2022-10-17T17:06:26.835Z,16.75
2022-10-17T17:08:54.575Z,16.64
2022-10-17T17:11:22.802Z,16.68
2022-10-17T17:13:49.424Z,16.53
2022-10-17T17:16:19.121Z,16.45
2022-10-17T17:18:46.198Z,16.52
2022-10-17T17:21:13.270Z,16.39
2022-10-17T17:23:41.641Z,16.41
2022-10-17T17:26:20.028Z,16.40
2022-10-17T17:28:47.642Z,16.33
2022-10-17T17:31:17.715Z,16.39
2022-10-17T17:33:46.705Z,16.20
2022-10-17T17:36:17.207Z,16.22
2022-10-17T17:38:44.556Z,16.26
2022-10-17T17:41:13.698Z,16.19
2022-10-17T17:43:41.397Z,16.27
2022-10-17T17:46:08.261Z,16.20
2022-10-17T17:48:38.376Z,16.21
2022-10-17T17:51:06.536Z,16.20
2022-10-17T17:53:34.058Z,16.10
2022-10-17T17:56:05.099Z,16.07
2022-10-17T17:58:32.260Z,15.95
2022-10-17T18:00:59.133Z,16.00
2022-10-17T18:03:26.540Z,15.97
2022-10-17T18:05:53.565Z,16.01
2022-10-17T18:08:20.110Z,16.03
2022-10-17T18:10:54.378Z,16.01
2022-10-17T18:13:20.953Z,16.04
2022-10-17T18:15:48.833Z,16.07
2022-10-17T18:18:15.405Z,16.13
2022-10-17T18:20:42.952Z,16.03
2022-10-17T18:23:10.633Z,16.01
2022-10-17T18:25:37.460Z,15.97
2022-10-17T18:28:04.634Z,16.00
2022-10-17T18:30:34.454Z,15.99
2022-10-17T18:33:01.210Z,16.02
2022-10-17T18:35:27.736Z,15.96
2022-10-17T18:37:56.757Z,16.01
2022-10-17T18:40:23.285Z,16.04
2022-10-17T18:42:49.862Z,16.06
2022-10-17T18:45:17.465Z,16.13
2022-10-17T18:47:47.170Z,15.88
2022-10-17T18:50:14.726Z,15.78
2022-10-17T18:52:41.311Z,15.88
2022-10-17T18:55:08.432Z,15.94
2022-10-17T18:57:34.931Z,15.95
2022-10-17T19:00:01.674Z,15.80
2022-10-17T19:02:28.277Z,15.78
2022-10-17T19:04:54.848Z,15.83
2022-10-17T19:07:21.441Z,15.84
2022-10-17T19:09:48.917Z,15.89
2022-10-17T19:12:15.855Z,15.74
2022-10-17T19:14:42.343Z,15.69
2022-10-17T19:17:09.034Z,15.61
2022-10-17T19:19:36.082Z,15.73
2022-10-17T19:22:03.522Z,15.74
2022-10-17T19:24:30.249Z,15.67
2022-10-17T19:26:59.343Z,15.71
2022-10-17T19:29:31.820Z,15.76
2022-10-17T19:31:58.760Z,15.57
2022-10-17T19:34:25.381Z,15.46
2022-10-17T19:36:51.852Z,15.33
2022-10-17T19:39:20.215Z,15.35
2022-10-17T19:41:48.321Z,15.33
2022-10-17T19:44:15.428Z,15.46
2022-10-17T19:46:44.399Z,15.38
2022-10-17T19:49:11.729Z,15.28
2022-10-17T19:51:38.727Z,15.22
2022-10-17T19:54:05.382Z,15.21
2022-10-17T19:56:33.677Z,15.22
2022-10-17T19:59:00.413Z,15.25
2022-10-17T20:01:29.774Z,15.35
2022-10-17T20:03:56.904Z,15.28
2022-10-17T20:06:23.674Z,15.14
2022-10-17T20:08:51.151Z,15.11
2022-10-17T20:11:22.698Z,15.25
2022-10-17T20:13:50.261Z,15.24
2022-10-17T20:16:22.801Z,15.25
2022-10-17T20:18:50.303Z,15.28
2022-10-17T20:21:20.101Z,15.29
2022-10-17T20:23:47.920Z,15.29
2022-10-17T20:26:26.341Z,15.17
2022-10-17T20:29:05.587Z,15.33
2022-10-17T20:31:32.101Z,15.36
2022-10-17T20:33:59.642Z,15.37
2022-10-17T20:36:26.712Z,15.38
2022-10-17T20:38:55.511Z,15.29
2022-10-17T20:41:22.902Z,15.30
2022-10-17T20:43:54.062Z,15.32
2022-10-17T20:46:35.557Z,15.30
2022-10-17T20:49:04.435Z,15.37
2022-10-17T20:51:30.968Z,15.54
2022-10-17T20:56:31.181Z,15.51
2022-10-17T20:59:00.836Z,15.36
2022-10-17T21:01:28.533Z,15.28
2022-10-17T21:03:58.860Z,15.43
2022-10-17T21:06:27.395Z,15.41
2022-10-17T21:08:55.764Z,15.28
2022-10-17T21:11:24.318Z,15.30
2022-10-17T21:14:02.251Z,15.33
2022-10-17T21:16:30.439Z,15.22
2022-10-17T21:18:57.856Z,15.17
2022-10-17T21:21:29.568Z,15.03
2022-10-17T21:23:58.741Z,15.07
2022-10-17T21:26:25.279Z,15.08
2022-10-17T21:28:51.887Z,15.19
2022-10-17T21:31:21.171Z,15.15
2022-10-17T21:33:53.737Z,14.99
2022-10-17T21:36:21.072Z,15.11
2022-10-17T21:38:49.264Z,14.93
2022-10-17T21:41:20.158Z,15.06
2022-10-17T21:43:47.937Z,15.02
2022-10-17T21:46:17.291Z,14.86
2022-10-17T21:48:45.180Z,14.78
2022-10-17T21:51:15.082Z,14.98
2022-10-17T21:53:42.061Z,14.89
2022-10-17T21:56:17.468Z,14.71
2022-10-17T21:58:44.725Z,14.93
2022-10-17T22:01:21.835Z,14.73
2022-10-17T22:03:50.829Z,14.86
2022-10-17T22:09:14.388Z,15.08
2022-10-17T22:11:41.484Z,14.65
2022-10-17T22:14:12.993Z,14.55
2022-10-17T22:16:40.537Z,14.47
2022-10-17T22:19:08.666Z,14.60
2022-10-17T22:21:36.889Z,14.52
2022-10-17T22:24:07.504Z,14.55
2022-10-17T22:26:35.856Z,14.77
2022-10-17T22:29:03.775Z,14.89
2022-10-17T22:31:30.312Z,14.73
2022-10-17T22:33:56.871Z,14.74
2022-10-17T22:36:23.620Z,14.75
2022-10-17T22:38:50.470Z,14.78
2022-10-17T22:41:17.301Z,14.76
2022-10-17T22:43:43.893Z,14.80
2022-10-17T22:46:13.042Z,14.86
2022-10-17T22:48:40.204Z,14.86
2022-10-17T22:51:06.885Z,14.87
2022-10-17T22:53:35.142Z,14.81
2022-10-17T22:56:08.011Z,14.71
2022-10-17T22:58:36.106Z,14.85
2022-10-17T23:01:04.241Z,14.81
2022-10-17T23:03:32.240Z,14.86
2022-10-17T23:05:59.199Z,14.75
2022-10-17T23:08:26.592Z,14.73
2022-10-17T23:10:53.325Z,14.74
2022-10-17T23:13:22.005Z,14.82
2022-10-17T23:15:53.087Z,14.82
2022-10-17T23:18:20.992Z,14.84
2022-10-17T23:20:47.938Z,14.84
2022-10-17T23:23:14.904Z,14.79
2022-10-17T23:25:41.653Z,14.85
2022-10-17T23:28:08.783Z,14.76
2022-10-17T23:30:36.985Z,14.76
2022-10-17T23:33:04.325Z,14.78
2022-10-17T23:35:31.642Z,14.75
2022-10-17T23:37:58.497Z,14.53
2022-10-17T23:40:25.125Z,14.53
2022-10-17T23:42:51.579Z,14.61
2022-10-17T23:45:18.356Z,14.66
2022-10-17T23:47:44.894Z,14.64
2022-10-17T23:50:11.489Z,14.48
2022-10-17T23:52:38.033Z,14.38
2022-10-17T23:55:05.090Z,14.49
2022-10-17T23:57:32.076Z,14.38
2022-10-17T23:59:58.904Z,14.34
